Lampasas, TX (76550)

3:18 PM CDT on July 04, 2015 (GMT -0500)
Lampasas | | Change Station
CLOSE
Current Station
Airport
Location: Lampasas,
Elevation: 1214 ft
Nearby Weather Stations

Elev 1214 ft 31.11 °N, 98.20 °W | Updated 1 hour ago

Scattered Clouds
Scattered Clouds
91 °F
Feels Like 96 °F
N
6
Wind Variable Wind from South
Gusts 16 mph

Today
High -- | Low -- °F
--% Chance of Precip.
Yesterday
High -- | Low -- °F
Precip. -- in
6:33 AM 8:40 PM
Waning Gibbous, 90% visible
Pressure 30.00 in
Visibility 10.0 miles
Clouds Scattered Clouds 5000 ft
Scattered Clouds 5500 ft
Scattered Clouds 8000 ft
Heat Index 96 °F
Dew Point 70 °F
Humidity 51%
Rainfall 0.00 in
Snow Depth Not available.
UV 10 out of 12
Pollen 2.40 out of 12
Air Quality Not available.
Flu Activity Not available.
METAR KLZZ 041915Z AUTO 18005G14KT 10SM SCT050 SCT055 SCT080 33/21 A3000 RMK AO2 T03260212

More Conditions Fewer Conditions

Pressure 30.00 in
Visibility 10.0 miles
Clouds Scattered Clouds 5000 ft
Scattered Clouds 5500 ft
Scattered Clouds 8000 ft
Heat Index 96 °F
Dew Point 70 °F
Humidity 51%
Rainfall 0.00 in
Snow Depth Not available.
UV 10 out of 12
Pollen 2.40 out of 12
Air Quality Not available.
Flu Activity Not available.
METAR KLZZ 041915Z AUTO 18005G14KT 10SM SCT050 SCT055 SCT080 33/21 A3000 RMK AO2 T03260212

More Conditions Fewer Conditions

Nowcast | as of 3:02 PM CDT on July 4, 2015

Isolated showers and thunderstorms will continue to develop this afternoon mainly east of a line from Bowie to Gatesville. This activity is fairly short lived...usually lasting less than 30 minutes and may produce up to one quarter of an inch of rainfall. Storms will also produce frequent lightning and may produce gusty winds. Otherwise...warm and humid conditions can be expected with temperatures peaking in the lower 90s at most locations. Afternoon heat indices will make it feel like it is in the mid 90s to near 100 degrees. Persons engaged in outside activities should drink plenty of water and seek cooler conditions periodically to avoid heat related physically problems.

×

10-Day Weather Forecast

×

Almanac

Astronomy

Jul. 04, 2015 Rise Set
Actual Time
Civil Twilight
Nautical Twilight
Astronomical Twilight
Moon
Length of Visible Light
Length of Day
Tomorrow will be .
, % of the Moon is Illuminated

Today's Extremes

State Highs State Lows

Community

WunderPhotos

Upload Photos

1,835,085 photos uploaded!

WunderBlogs® & News

Nearby

Air Quality

  Air Quality AQ Index Pollutant
Not available.

Snow Depth

Station Depth Elevation

Earthquake Activity

City Distance Mag. Time & Date
Minimum magnitude displayed is 2.5.

Coastal Water Temperatures

Place Temperature

Stations

Nearby Weather Stations

Station Location Temp. Windchill Dew Point Humidity Wind Precip. Elev Updated Type